Time,TemperatureF,DewpointF,PressureIn,WindDirection,WindDirectionDegrees,WindSpeedMPH,WindSpeedGustMPH,Humidity,HourlyPrecipIn,Conditions,Clouds,dailyrainin,SoftwareType,DateUTC
2013-07-16 00:10:00,77.7,72.0,30.17,SE,138,0.0,0.0,82,0.00,,,0.00,weatherlink.com 1.10,2013-07-16 04:10:00,
2013-07-16 00:25:00,77.4,72.0,30.17,SE,139,0.0,0.0,82,0.00,,,0.00,weatherlink.com 1.10,2013-07-16 04:25:00,
2013-07-16 00:40:00,77.3,71.0,30.17,SE,139,0.0,0.0,82,0.00,,,0.00,weatherlink.com 1.10,2013-07-16 04:40:00,
2013-07-16 00:55:00,77.1,71.0,30.17,SE,138,0.0,0.0,82,0.00,,,0.00,weatherlink.com 1.10,2013-07-16 04:55:00,
2013-07-16 01:10:00,76.7,71.0,30.17,SE,138,0.0,0.0,83,0.00,,,0.00,weatherlink.com 1.10,2013-07-16 05:10:00,
2013-07-16 01:25:00,76.6,71.0,30.17,SE,136,0.0,0.0,83,0.00,,,0.00,weatherlink.com 1.10,2013-07-16 05:25:00,
2013-07-16 01:40:00,76.3,71.0,30.17,SE,136,0.0,0.0,83,0.00,,,0.00,weatherlink.com 1.10,2013-07-16 05:40:00,
2013-07-16 01:55:00,76.2,71.0,30.17,SE,136,0.0,0.0,83,0.00,,,0.00,weatherlink.com 1.10,2013-07-16 05:55:00,
2013-07-16 02:10:00,76.1,71.0,30.16,SE,136,0.0,0.0,83,0.00,,,0.00,weatherlink.com 1.10,2013-07-16 06:10:00,
2013-07-16 02:25:00,76.0,70.0,30.16,SE,136,0.0,0.0,82,0.00,,,0.00,weatherlink.com 1.10,2013-07-16 06:25:00,
2013-07-16 02:40:00,75.9,70.0,30.16,SE,136,0.0,0.0,82,0.00,,,0.00,weatherlink.com 1.10,2013-07-16 06:40:00,
2013-07-16 02:55:00,75.5,70.0,30.16,SE,136,0.0,0.0,83,0.00,,,0.00,weatherlink.com 1.10,2013-07-16 06:55:00,
2013-07-16 03:10:00,75.2,70.0,30.16,SE,136,0.0,0.0,83,0.00,,,0.00,weatherlink.com 1.10,2013-07-16 07:10:00,
2013-07-16 03:25:00,75.0,70.0,30.16,SE,136,0.0,0.0,83,0.00,,,0.00,weatherlink.com 1.10,2013-07-16 07:25:00,
2013-07-16 03:40:00,74.9,69.0,30.16,SE,136,0.0,0.0,83,0.00,,,0.00,weatherlink.com 1.10,2013-07-16 07:40:00,
2013-07-16 03:55:00,74.8,69.0,30.16,SE,136,0.0,0.0,83,0.00,,,0.00,weatherlink.com 1.10,2013-07-16 07:55:00,
2013-07-16 04:10:00,74.6,69.0,30.16,SE,136,0.0,0.0,83,0.00,,,0.00,weatherlink.com 1.10,2013-07-16 08:10:00,
2013-07-16 04:25:00,74.5,69.0,30.16,SE,136,0.0,0.0,83,0.00,,,0.00,weatherlink.com 1.10,2013-07-16 08:25:00,
2013-07-16 04:40:00,74.2,69.0,30.16,SE,136,0.0,0.0,83,0.00,,,0.00,weatherlink.com 1.10,2013-07-16 08:40:00,
2013-07-16 04:55:00,74.0,69.0,30.16,SE,137,0.0,0.0,83,0.00,,,0.00,weatherlink.com 1.10,2013-07-16 08:55:00,
2013-07-16 05:10:00,73.8,68.0,30.17,SE,136,0.0,0.0,83,0.00,,,0.00,weatherlink.com 1.10,2013-07-16 09:10:00,
2013-07-16 05:25:00,73.5,68.0,30.17,SE,136,0.0,0.0,84,0.00,,,0.00,weatherlink.com 1.10,2013-07-16 09:25:00,
2013-07-16 05:40:00,73.3,68.0,30.17,SE,136,0.0,0.0,84,0.00,,,0.00,weatherlink.com 1.10,2013-07-16 09:40:00,
2013-07-16 05:55:00,73.2,68.0,30.18,SE,136,0.0,0.0,84,0.00,,,0.00,weatherlink.com 1.10,2013-07-16 09:55:00,
2013-07-16 06:10:00,73.0,68.0,30.18,SE,137,0.0,0.0,84,0.00,,,0.00,weatherlink.com 1.10,2013-07-16 10:10:00,
2013-07-16 06:25:00,72.8,68.0,30.18,SE,136,0.0,0.0,84,0.00,,,0.00,weatherlink.com 1.10,2013-07-16 10:25:00,
2013-07-16 06:40:00,72.9,68.0,30.19,SE,136,0.0,0.0,84,0.00,,,0.00,weatherlink.com 1.10,2013-07-16 10:40:00,
2013-07-16 06:55:00,73.1,68.0,30.19,SE,136,0.0,0.0,84,0.00,,,0.00,weatherlink.com 1.10,2013-07-16 10:55:00,
2013-07-16 07:11:00,73.5,68.0,30.20,SE,136,0.0,0.0,83,0.00,,,0.00,weatherlink.com 1.10,2013-07-16 11:11:00,
2013-07-16 07:26:00,74.1,68.0,30.20,SE,136,0.0,0.0,82,0.00,,,0.00,weatherlink.com 1.10,2013-07-16 11:26:00,
2013-07-16 07:41:00,74.7,69.0,30.20,SE,136,0.0,0.0,81,0.00,,,0.00,weatherlink.com 1.10,2013-07-16 11:41:00,
2013-07-16 07:56:00,75.3,69.0,30.20,SE,137,0.0,0.0,81,0.00,,,0.00,weatherlink.com 1.10,2013-07-16 11:56:00,
2013-07-16 08:11:00,76.1,70.0,30.20,SE,136,0.0,0.0,80,0.00,,,0.00,weatherlink.com 1.10,2013-07-16 12:11:00,
2013-07-16 08:26:00,76.8,69.0,30.21,SE,136,0.0,0.0,78,0.00,,,0.00,weatherlink.com 1.10,2013-07-16 12:26:00,
2013-07-16 08:41:00,78.1,70.0,30.21,SE,134,0.0,1.0,75,0.00,,,0.00,weatherlink.com 1.10,2013-07-16 12:41:00,
2013-07-16 08:56:00,79.5,71.0,30.20,SE,138,0.0,1.0,74,0.00,,,0.00,weatherlink.com 1.10,2013-07-16 12:56:00,
2013-07-16 09:11:00,81.0,70.0,30.20,SE,138,0.0,1.0,69,0.00,,,0.00,weatherlink.com 1.10,2013-07-16 13:11:00,
2013-07-16 09:26:00,82.5,71.0,30.20,SE,139,0.0,0.0,69,0.00,,,0.00,weatherlink.com 1.10,2013-07-16 13:26:00,
2013-07-16 09:41:00,83.8,70.0,30.20,SSE,152,0.0,1.0,64,0.00,,,0.00,weatherlink.com 1.10,2013-07-16 13:41:00,
2013-07-16 09:56:00,84.4,71.0,30.20,SE,138,0.0,1.0,64,0.00,,,0.00,weatherlink.com 1.10,2013-07-16 13:56:00,
2013-07-16 10:11:00,84.2,70.0,30.21,SE,139,0.0,0.0,63,0.00,,,0.00,weatherlink.com 1.10,2013-07-16 14:11:00,
2013-07-16 10:26:00,83.9,71.0,30.20,SSE,152,0.0,2.0,66,0.00,,,0.00,weatherlink.com 1.10,2013-07-16 14:26:00,
2013-07-16 10:41:00,83.6,70.0,30.20,SSE,155,0.0,2.0,63,0.00,,,0.00,weatherlink.com 1.10,2013-07-16 14:41:00,
2013-07-16 10:56:00,83.7,71.0,30.19,SE,146,1.0,1.0,65,0.00,,,0.00,weatherlink.com 1.10,2013-07-16 14:56:00,
2013-07-16 11:11:00,84.0,69.0,30.19,ESE,119,0.0,1.0,60,0.00,,,0.00,weatherlink.com 1.10,2013-07-16 15:11:00,
2013-07-16 11:26:00,85.0,70.0,30.19,SE,132,0.0,1.0,61,0.00,,,0.00,weatherlink.com 1.10,2013-07-16 15:26:00,
2013-07-16 11:41:00,85.0,70.0,30.19,SE,142,0.0,2.0,60,0.00,,,0.00,weatherlink.com 1.10,2013-07-16 15:41:00,
2013-07-16 11:56:00,85.5,69.0,30.19,SE,138,0.0,1.0,59,0.00,,,0.00,weatherlink.com 1.10,2013-07-16 15:56:00,
2013-07-16 12:11:00,86.5,69.0,30.19,SE,127,0.0,0.0,57,0.00,,,0.00,weatherlink.com 1.10,2013-07-16 16:11:00,
2013-07-16 12:26:00,86.9,69.0,30.18,SE,127,0.0,0.0,56,0.00,,,0.00,weatherlink.com 1.10,2013-07-16 16:26:00,
2013-07-16 12:41:00,88.0,69.0,30.18,SE,137,0.0,0.0,54,0.00,,,0.00,weatherlink.com 1.10,2013-07-16 16:41:00,
2013-07-16 12:56:00,88.3,70.0,30.18,SE,139,0.0,1.0,54,0.00,,,0.00,weatherlink.com 1.10,2013-07-16 16:56:00,
2013-07-16 13:11:00,87.9,66.0,30.18,SE,127,0.0,0.0,48,0.00,,,0.00,weatherlink.com 1.10,2013-07-16 17:11:00,
2013-07-16 13:26:00,88.0,66.0,30.17,SE,134,1.0,1.0,49,0.00,,,0.00,weatherlink.com 1.10,2013-07-16 17:26:00,
2013-07-16 13:41:00,88.5,67.0,30.17,SSE,150,0.0,3.0,49,0.00,,,0.00,weatherlink.com 1.10,2013-07-16 17:41:00,
2013-07-16 13:56:00,88.2,68.0,30.17,SSE,153,0.0,0.0,52,0.00,,,0.00,weatherlink.com 1.10,2013-07-16 17:56:00,
2013-07-16 14:11:00,88.9,68.0,30.17,SSE,149,0.0,1.0,51,0.00,,,0.00,weatherlink.com 1.10,2013-07-16 18:11:00,
2013-07-16 14:26:00,90.3,70.0,30.17,SE,145,0.0,2.0,52,0.00,,,0.00,weatherlink.com 1.10,2013-07-16 18:26:00,
2013-07-16 14:41:00,91.7,68.0,30.16,SE,125,0.0,0.0,46,0.00,,,0.00,weatherlink.com 1.10,2013-07-16 18:41:00,
2013-07-16 14:56:00,91.9,71.0,30.16,SE,124,0.0,0.0,50,0.00,,,0.00,weatherlink.com 1.10,2013-07-16 18:56:00,
2013-07-16 15:11:00,92.5,70.0,30.16,SE,138,0.0,0.0,48,0.00,,,0.00,weatherlink.com 1.10,2013-07-16 19:11:00,
2013-07-16 15:27:00,92.6,71.0,30.16,ESE,112,0.0,0.0,49,0.00,,,0.00,weatherlink.com 1.10,2013-07-16 19:27:00,
2013-07-16 15:42:00,92.3,72.0,30.16,SE,129,0.0,0.0,51,0.00,,,0.00,weatherlink.com 1.10,2013-07-16 19:42:00,
2013-07-16 15:57:00,91.6,72.0,30.16,SE,129,0.0,0.0,52,0.00,,,0.00,weatherlink.com 1.10,2013-07-16 19:57:00,
2013-07-16 16:12:00,89.9,71.0,30.16,SE,129,0.0,0.0,54,0.00,,,0.00,weatherlink.com 1.10,2013-07-16 20:12:00,
2013-07-16 16:27:00,90.3,72.0,30.15,SE,129,0.0,0.0,55,0.00,,,0.00,weatherlink.com 1.10,2013-07-16 20:27:00,
2013-07-16 16:42:00,91.5,72.0,30.15,SE,129,0.0,0.0,53,0.00,,,0.00,weatherlink.com 1.10,2013-07-16 20:42:00,
2013-07-16 16:57:00,90.2,72.0,30.15,SE,129,0.0,0.0,55,0.00,,,0.00,weatherlink.com 1.10,2013-07-16 20:57:00,
2013-07-16 17:12:00,89.8,70.0,30.14,SE,129,0.0,0.0,53,0.00,,,0.00,weatherlink.com 1.10,2013-07-16 21:12:00,
2013-07-16 17:27:00,89.1,70.0,30.14,SE,129,0.0,-999.0,54,-99.99,,,0.00,weatherlink.com 1.10,2013-07-16 21:27:00,
2013-07-16 17:42:00,88.6,71.0,30.14,SE,129,0.0,0.0,57,0.00,,,0.00,weatherlink.com 1.10,2013-07-16 21:42:00,
2013-07-16 17:57:00,87.5,70.0,30.14,SSE,153,0.0,1.0,56,0.00,,,0.00,weatherlink.com 1.10,2013-07-16 21:57:00,
2013-07-16 18:12:00,87.0,69.0,30.14,SSE,153,0.0,1.0,56,0.00,,,0.00,weatherlink.com 1.10,2013-07-16 22:12:00,
2013-07-16 18:27:00,86.0,70.0,30.14,SSE,152,0.0,1.0,59,0.00,,,0.00,weatherlink.com 1.10,2013-07-16 22:27:00,
2013-07-16 18:42:00,85.3,71.0,30.14,SSE,153,0.0,0.0,62,0.00,,,0.00,weatherlink.com 1.10,2013-07-16 22:42:00,
2013-07-16 18:57:00,84.5,70.0,30.14,SSE,152,0.0,0.0,63,0.00,,,0.00,weatherlink.com 1.10,2013-07-16 22:57:00,
2013-07-16 19:12:00,83.8,71.0,30.15,SSE,152,0.0,0.0,66,0.00,,,0.00,weatherlink.com 1.10,2013-07-16 23:12:00,
2013-07-16 19:27:00,83.3,71.0,30.15,SSE,153,0.0,0.0,67,0.00,,,0.00,weatherlink.com 1.10,2013-07-16 23:27:00,
2013-07-16 19:42:00,82.6,71.0,30.15,SSE,152,0.0,0.0,68,0.00,,,0.00,weatherlink.com 1.10,2013-07-16 23:42:00,
2013-07-16 19:57:00,81.9,70.0,30.15,SSE,152,0.0,0.0,68,0.00,,,0.00,weatherlink.com 1.10,2013-07-16 23:57:00,
2013-07-16 20:12:00,81.3,70.0,30.15,SSE,153,0.0,0.0,69,0.00,,,0.00,weatherlink.com 1.10,2013-07-17 00:12:00,
2013-07-16 20:27:00,80.6,70.0,30.15,SSE,152,0.0,0.0,69,0.00,,,0.00,weatherlink.com 1.10,2013-07-17 00:27:00,
2013-07-16 20:42:00,80.2,70.0,30.15,SSE,152,0.0,0.0,70,0.00,,,0.00,weatherlink.com 1.10,2013-07-17 00:42:00,
2013-07-16 20:57:00,79.7,70.0,30.16,SSE,153,0.0,0.0,71,0.00,,,0.00,weatherlink.com 1.10,2013-07-17 00:57:00,
2013-07-16 21:12:00,79.4,69.0,30.16,SSE,152,0.0,0.0,70,0.00,,,0.00,weatherlink.com 1.10,2013-07-17 01:12:00,
2013-07-16 21:27:00,79.4,69.0,30.17,SSE,153,0.0,0.0,70,0.00,,,0.00,weatherlink.com 1.10,2013-07-17 01:27:00,
2013-07-16 21:42:00,79.4,69.0,30.17,SSE,152,0.0,0.0,70,0.00,,,0.00,weatherlink.com 1.10,2013-07-17 01:42:00,
2013-07-16 21:57:00,79.1,69.0,30.17,SSE,152,0.0,0.0,70,0.00,,,0.00,weatherlink.com 1.10,2013-07-17 01:57:00,
2013-07-16 22:12:00,79.0,69.0,30.18,SSE,152,0.0,0.0,71,0.00,,,0.00,weatherlink.com 1.10,2013-07-17 02:12:00,
2013-07-16 22:27:00,78.9,69.0,30.18,SSE,152,0.0,0.0,71,0.00,,,0.00,weatherlink.com 1.10,2013-07-17 02:27:00,
2013-07-16 22:42:00,78.8,69.0,30.18,SSE,152,0.0,0.0,72,0.00,,,0.00,weatherlink.com 1.10,2013-07-17 02:42:00,
2013-07-16 22:57:00,79.0,69.0,30.18,SSE,152,0.0,0.0,71,0.00,,,0.00,weatherlink.com 1.10,2013-07-17 02:57:00,
2013-07-16 23:12:00,79.4,68.0,30.18,SSE,152,0.0,0.0,69,0.00,,,0.00,weatherlink.com 1.10,2013-07-17 03:12:00,
2013-07-16 23:27:00,80.1,69.0,30.17,SSE,152,0.0,0.0,68,0.00,,,0.00,weatherlink.com 1.10,2013-07-17 03:27:00,
2013-07-16 23:42:00,80.2,69.0,30.17,SSE,149,0.0,0.0,69,0.00,,,0.00,weatherlink.com 1.10,2013-07-17 03:42:00,
2013-07-16 23:57:00,79.9,69.0,30.17,SSE,148,0.0,0.0,69,0.00,,,0.00,weatherlink.com 1.10,2013-07-17 03:57:00,